createdAt,value
2023-01-17T00:01:53.949Z,97858.81
2023-01-17T00:04:39.200Z,97862.59
2023-01-17T00:07:24.488Z,97877.97
2023-01-17T00:09:56.736Z,97884.19
2023-01-17T00:12:26.115Z,97887.44
2023-01-17T00:14:56.393Z,97884.47
2023-01-17T00:17:24.840Z,97879.41
2023-01-17T00:20:10.265Z,97888.56
2023-01-17T00:22:56.016Z,97892.97
2023-01-17T00:25:44.088Z,97892.78
2023-01-17T00:28:10.669Z,97899.09
2023-01-17T00:30:38.801Z,97902.34
2023-01-17T00:33:05.817Z,97902.78
2023-01-17T00:35:33.277Z,97904.88
2023-01-17T00:38:04.832Z,97914.53
2023-01-17T00:40:31.609Z,97912.22
2023-01-17T00:43:16.785Z,97913.38
2023-01-17T00:46:04.858Z,97917.78
2023-01-17T00:48:50.188Z,97916.63
2023-01-17T00:51:35.920Z,97926.44
2023-01-17T00:54:21.645Z,97937.19
2023-01-17T00:57:06.800Z,97940.13
2023-01-17T00:59:51.704Z,97946.31
2023-01-17T01:02:38.497Z,97940.88
2023-01-17T01:05:24.095Z,97953.63
2023-01-17T01:08:09.185Z,97954.44
2023-01-17T01:10:54.283Z,97955.44
2023-01-17T01:13:41.882Z,97970.81
2023-01-17T01:16:26.987Z,97974.38
2023-01-17T01:19:13.634Z,97971.13
2023-01-17T01:21:58.649Z,97983.00
2023-01-17T01:24:44.179Z,98023.31
2023-01-17T01:27:29.435Z,98008.22
2023-01-17T01:30:14.695Z,98035.66
2023-01-17T01:32:59.764Z,98023.84
2023-01-17T01:35:29.034Z,98033.47
2023-01-17T01:37:56.815Z,98031.31
2023-01-17T01:40:24.481Z,98042.88
2023-01-17T01:42:53.603Z,98046.63
2023-01-17T01:45:22.751Z,98053.88
2023-01-17T01:47:51.520Z,98049.75
2023-01-17T01:50:21.414Z,98077.75
2023-01-17T01:52:54.507Z,98066.63
2023-01-17T01:55:24.649Z,98065.97
2023-01-17T01:57:53.889Z,98070.94
2023-01-17T02:00:24.897Z,98089.91
2023-01-17T02:02:54.339Z,98091.84
2023-01-17T02:05:23.915Z,98098.19
2023-01-17T02:07:55.898Z,98102.72
2023-01-17T02:10:24.092Z,98112.22
2023-01-17T02:12:53.182Z,98117.47
2023-01-17T02:15:22.566Z,98129.78
2023-01-17T02:17:58.749Z,98138.75
2023-01-17T02:20:39.284Z,98142.69
2023-01-17T02:23:44.221Z,98152.03
2023-01-17T02:26:43.382Z,98152.88
2023-01-17T02:29:43.536Z,98157.72
2023-01-17T02:32:16.136Z,98167.47
2023-01-17T02:34:48.108Z,98163.63
2023-01-17T02:37:19.102Z,98175.44
2023-01-17T02:39:52.016Z,98174.91
2023-01-17T02:42:20.866Z,98169.44
2023-01-17T02:44:48.539Z,98176.16
2023-01-17T02:47:25.753Z,98178.59
2023-01-17T02:49:54.157Z,98174.66
2023-01-17T02:52:32.359Z,98182.47
2023-01-17T02:55:16.644Z,98200.72
2023-01-17T02:57:57.766Z,98201.41
2023-01-17T03:00:29.056Z,98210.19
2023-01-17T03:03:04.190Z,98210.06
2023-01-17T03:05:36.285Z,98210.63
2023-01-17T03:08:04.596Z,98213.63
2023-01-17T03:10:33.961Z,98217.59
2023-01-17T03:13:02.446Z,98217.31
2023-01-17T03:15:30.391Z,98218.81
2023-01-17T03:18:01.811Z,98225.69
2023-01-17T03:20:29.458Z,98222.94
2023-01-17T03:22:57.189Z,98226.38
2023-01-17T03:25:24.823Z,98227.34
2023-01-17T03:27:52.504Z,98237.63
2023-01-17T03:30:21.853Z,98234.75
2023-01-17T03:32:49.670Z,98232.28
2023-01-17T03:35:18.807Z,98238.88
2023-01-17T03:37:46.523Z,98243.53
2023-01-17T03:40:14.315Z,98243.00
2023-01-17T03:42:42.733Z,98254.41
2023-01-17T03:45:11.207Z,98250.69
2023-01-17T03:47:38.956Z,98252.03
2023-01-17T03:50:07.475Z,98255.34
2023-01-17T03:52:36.669Z,98256.72
2023-01-17T03:55:04.464Z,98261.66
2023-01-17T03:57:32.210Z,98263.56
2023-01-17T03:59:59.925Z,98276.75
2023-01-17T04:02:27.638Z,98274.31
2023-01-17T04:04:55.364Z,98273.47
2023-01-17T04:07:23.665Z,98280.63
2023-01-17T04:09:52.694Z,98285.03
2023-01-17T04:12:20.467Z,98289.44
2023-01-17T04:14:48.715Z,98296.28
2023-01-17T04:17:17.915Z,98289.97
2023-01-17T04:19:45.637Z,98293.66
2023-01-17T04:22:13.430Z,98296.81
2023-01-17T04:24:41.192Z,98304.53
2023-01-17T04:27:14.232Z,98299.56
2023-01-17T04:29:41.954Z,98303.81
2023-01-17T04:32:09.901Z,98302.03
2023-01-17T04:34:37.677Z,98320.72
2023-01-17T04:37:05.400Z,98314.13
2023-01-17T04:39:33.128Z,98314.41
2023-01-17T04:42:00.814Z,98317.72
2023-01-17T04:44:29.902Z,98312.22
2023-01-17T04:46:57.703Z,98310.28
2023-01-17T04:49:25.482Z,98308.66
2023-01-17T04:51:53.224Z,98310.28
2023-01-17T04:54:20.887Z,98311.25
2023-01-17T04:56:48.962Z,98310.69
2023-01-17T04:59:16.697Z,98325.94
2023-01-17T05:01:45.843Z,98336.09
2023-01-17T05:04:13.699Z,98331.84
2023-01-17T05:06:41.477Z,98340.50
2023-01-17T05:09:09.292Z,98339.69
2023-01-17T05:11:37.053Z,98331.44
2023-01-17T05:14:07.951Z,98337.47
2023-01-17T05:16:35.695Z,98336.13
2023-01-17T05:19:04.855Z,98327.88
2023-01-17T05:21:32.561Z,98336.50
2023-01-17T05:24:00.377Z,98345.47
2023-01-17T05:26:28.132Z,98350.97
2023-01-17T05:28:55.837Z,98345.16
2023-01-17T05:31:23.523Z,98347.63
2023-01-17T05:33:51.225Z,98355.59
2023-01-17T05:36:21.222Z,98350.53
2023-01-17T05:38:49.073Z,98349.72
2023-01-17T05:41:16.823Z,98354.25
2023-01-17T05:43:44.533Z,98352.19
2023-01-17T05:46:12.340Z,98362.75
2023-01-17T05:48:40.108Z,98361.06
2023-01-17T05:51:07.840Z,98354.22
2023-01-17T05:53:36.961Z,98367.81
2023-01-17T05:56:04.862Z,98373.44
2023-01-17T05:58:32.537Z,98380.34
2023-01-17T06:01:00.285Z,98382.81
2023-01-17T06:03:28.100Z,98390.50
2023-01-17T06:05:55.813Z,98388.56
2023-01-17T06:08:23.613Z,98394.06
2023-01-17T06:10:52.693Z,98394.06
2023-01-17T06:13:21.879Z,98403.94
2023-01-17T06:15:49.826Z,98408.59
2023-01-17T06:18:19.736Z,98402.72
2023-01-17T06:20:48.712Z,98412.84
2023-01-17T06:23:16.415Z,98414.34
2023-01-17T06:25:45.296Z,98409.50
2023-01-17T06:28:15.633Z,98414.19
2023-01-17T06:30:43.909Z,98414.44
2023-01-17T06:33:11.922Z,98429.66
2023-01-17T06:35:40.914Z,98427.88
2023-01-17T06:38:10.004Z,98431.44
2023-01-17T06:40:37.701Z,98423.63
2023-01-17T06:43:06.484Z,98435.00
2023-01-17T06:45:36.583Z,98429.81
2023-01-17T06:48:05.279Z,98431.81
2023-01-17T06:50:33.648Z,98443.75
2023-01-17T06:53:02.876Z,98439.50
2023-01-17T06:55:33.666Z,98450.22
2023-01-17T06:58:02.866Z,98441.13
2023-01-17T07:00:31.749Z,98452.06
2023-01-17T07:03:01.117Z,98452.06
2023-01-17T07:05:29.058Z,98462.41
2023-01-17T07:07:56.758Z,98457.19
2023-01-17T07:10:24.460Z,98457.81
2023-01-17T07:12:52.462Z,98457.94
2023-01-17T07:15:20.189Z,98454.50
2023-01-17T07:17:48.011Z,98459.97
2023-01-17T07:20:18.588Z,98462.59
2023-01-17T07:22:46.591Z,98479.06
2023-01-17T07:25:14.394Z,98474.22
2023-01-17T07:27:42.091Z,98472.56
2023-01-17T07:30:11.139Z,98482.84
2023-01-17T07:32:38.875Z,98494.97
2023-01-17T07:35:07.558Z,98487.84
2023-01-17T07:37:36.617Z,98490.44
2023-01-17T07:40:04.927Z,98483.31
2023-01-17T07:42:32.584Z,98492.63
2023-01-17T07:45:00.646Z,98492.78
2023-01-17T07:47:28.291Z,98487.69
2023-01-17T07:49:56.176Z,98491.94
2023-01-17T07:52:23.927Z,98496.94
2023-01-17T07:54:53.148Z,98500.88
2023-01-17T07:57:20.866Z,98493.03
2023-01-17T07:59:50.931Z,98495.78
2023-01-17T08:02:20.324Z,98490.69
2023-01-17T08:04:48.864Z,98497.31
2023-01-17T08:07:17.365Z,98486.88
2023-01-17T08:09:49.709Z,98497.03
2023-01-17T08:12:18.955Z,98491.13
2023-01-17T08:14:46.685Z,98490.16
2023-01-17T08:17:17.145Z,98495.66
2023-01-17T08:19:45.229Z,98487.69
2023-01-17T08:22:13.298Z,98490.16
2023-01-17T08:24:41.929Z,98502.25
2023-01-17T08:27:09.987Z,98495.25
2023-01-17T08:29:42.125Z,98494.31
2023-01-17T08:32:09.907Z,98492.63
2023-01-17T08:34:37.574Z,98491.59
2023-01-17T08:37:05.324Z,98504.75
2023-01-17T08:39:33.052Z,98497.03
2023-01-17T08:42:00.813Z,98500.09
2023-01-17T08:44:28.509Z,98495.16
2023-01-17T08:46:57.609Z,98507.47
2023-01-17T08:49:25.665Z,98497.31
2023-01-17T08:51:53.393Z,98505.81
2023-01-17T08:54:22.892Z,98510.19
2023-01-17T08:56:52.807Z,98506.53
2023-01-17T08:59:20.793Z,98515.03
2023-01-17T09:01:48.556Z,98526.97
2023-01-17T09:04:17.764Z,98517.50
2023-01-17T09:06:48.193Z,98514.44
2023-01-17T09:09:17.198Z,98519.56
2023-01-17T09:11:44.949Z,98525.84
2023-01-17T09:14:13.416Z,98518.97
2023-01-17T09:16:41.201Z,98522.28
2023-01-17T09:19:09.671Z,98519.56
2023-01-17T09:21:38.900Z,98520.38
2023-01-17T09:24:07.154Z,98523.91
2023-01-17T09:26:34.964Z,98523.09
2023-01-17T09:29:02.689Z,98523.09
2023-01-17T09:31:30.453Z,98530.28
2023-01-17T09:33:59.020Z,98524.78
2023-01-17T09:36:28.763Z,98538.00
2023-01-17T09:38:58.955Z,98541.03
2023-01-17T09:41:28.894Z,98553.94
2023-01-17T09:44:01.050Z,98547.66
2023-01-17T09:46:31.323Z,98562.34
2023-01-17T09:49:04.900Z,98561.25
2023-01-17T09:51:32.880Z,98564.31
2023-01-17T09:54:02.757Z,98555.66
2023-01-17T09:56:33.620Z,98562.25
2023-01-17T09:59:21.436Z,98572.69
2023-01-17T10:01:55.605Z,98567.28
2023-01-17T10:04:41.442Z,98580.31
2023-01-17T10:07:16.461Z,98586.25
2023-01-17T10:09:55.079Z,98579.59
2023-01-17T10:12:28.889Z,98583.69
2023-01-17T10:15:14.695Z,98584.03
2023-01-17T10:17:51.758Z,98585.41
2023-01-17T10:20:40.783Z,98599.41
2023-01-17T10:23:22.004Z,98591.25
2023-01-17T10:25:52.398Z,98595.50
2023-01-17T10:28:22.768Z,98586.75
2023-01-17T10:30:51.837Z,98586.22
2023-01-17T10:33:22.060Z,98589.25
2023-01-17T10:35:56.877Z,98588.13
2023-01-17T10:38:31.381Z,98574.41
2023-01-17T10:41:04.984Z,98580.78
2023-01-17T10:43:40.318Z,98584.88
2023-01-17T10:46:15.761Z,98579.16
2023-01-17T10:48:45.977Z,98592.91
2023-01-17T10:51:23.076Z,98588.38
2023-01-17T10:54:07.537Z,98591.78
2023-01-17T10:56:37.954Z,98591.09
2023-01-17T10:59:28.718Z,98591.56
2023-01-17T11:01:56.518Z,98580.03
2023-01-17T11:04:32.442Z,98576.84
2023-01-17T11:07:18.392Z,98575.06
2023-01-17T11:09:47.376Z,98569.59
2023-01-17T11:12:23.843Z,98567.94
2023-01-17T11:15:04.221Z,98567.94
2023-01-17T11:17:33.264Z,98575.63
2023-01-17T11:20:23.503Z,98570.41
2023-01-17T11:23:04.194Z,98567.94
2023-01-17T11:25:34.099Z,98573.59
2023-01-17T11:28:06.448Z,98573.47
2023-01-17T11:30:34.220Z,98574.28
2023-01-17T11:33:04.221Z,98572.38
2023-01-17T11:35:32.532Z,98578.84
2023-01-17T11:38:07.080Z,98571.84
2023-01-17T11:40:38.361Z,98576.28
2023-01-17T11:43:22.643Z,98579.47
2023-01-17T11:46:06.019Z,98579.03
2023-01-17T11:48:37.105Z,98570.13
2023-01-17T11:51:06.015Z,98571.78
2023-01-17T11:53:35.170Z,98570.00
2023-01-17T11:56:07.687Z,98566.72
2023-01-17T11:58:39.359Z,98568.22
2023-01-17T12:01:32.127Z,98566.31
2023-01-17T12:04:20.321Z,98569.22
2023-01-17T12:06:58.011Z,98562.09
2023-01-17T12:09:31.474Z,98561.28
2023-01-17T12:12:22.181Z,98554.84
2023-01-17T12:15:00.696Z,98554.25
2023-01-17T12:17:38.375Z,98554.56
2023-01-17T12:20:12.684Z,98552.50
2023-01-17T12:23:02.995Z,98559.50
2023-01-17T12:25:54.507Z,98558.69
2023-01-17T12:28:38.722Z,98553.06
2023-01-17T12:31:15.089Z,98551.66
2023-01-17T12:33:48.554Z,98550.28
2023-01-17T12:36:29.856Z,98547.81
2023-01-17T12:38:59.433Z,98550.69
2023-01-17T12:41:31.285Z,98547.81
2023-01-17T12:44:00.901Z,98544.50
2023-01-17T12:46:32.372Z,98546.41
2023-01-17T12:49:04.865Z,98546.72
2023-01-17T12:51:37.198Z,98551.13
2023-01-17T12:54:13.100Z,98546.72
2023-01-17T12:56:44.233Z,98552.22
2023-01-17T12:59:16.413Z,98552.34
2023-01-17T13:01:57.633Z,98554.56
2023-01-17T13:04:28.005Z,98559.34
2023-01-17T13:07:05.763Z,98548.75
2023-01-17T13:09:38.081Z,98548.34
2023-01-17T13:12:07.964Z,98553.44
2023-01-17T13:14:35.937Z,98562.09
2023-01-17T13:17:14.132Z,98562.94
2023-01-17T13:19:46.458Z,98553.03
2023-01-17T13:22:17.890Z,98549.75
2023-01-17T13:24:55.344Z,98558.94
2023-01-17T13:27:34.359Z,98543.94
2023-01-17T13:30:23.766Z,98552.88
2023-01-17T13:33:16.221Z,98546.81
2023-01-17T13:35:55.087Z,98545.31
2023-01-17T13:38:55.059Z,98541.44
2023-01-17T13:41:44.968Z,98560.44
2023-01-17T13:44:24.664Z,98554.78
2023-01-17T13:47:00.873Z,98556.00
2023-01-17T13:49:53.892Z,98564.25
2023-01-17T13:52:35.678Z,98557.81
2023-01-17T13:55:04.537Z,98554.09
2023-01-17T13:57:40.690Z,98557.91
2023-01-17T14:00:59.236Z,98561.25
2023-01-17T14:04:08.316Z,98561.25
2023-01-17T14:06:40.628Z,98565.75
2023-01-17T14:09:15.714Z,98567.03
2023-01-17T14:11:58.748Z,98565.38
2023-01-17T14:14:47.926Z,98570.31
2023-01-17T14:17:52.761Z,98571.97
2023-01-17T14:20:46.367Z,98574.88
2023-01-17T14:23:50.026Z,98578.56
2023-01-17T14:26:42.770Z,98568.13
2023-01-17T14:29:48.081Z,98576.13
2023-01-17T14:32:17.168Z,98573.69
2023-01-17T14:34:46.228Z,98578.06
2023-01-17T14:37:18.241Z,98572.03
2023-01-17T14:39:47.151Z,98583.88
2023-01-17T14:42:17.596Z,98583.59
2023-01-17T14:44:49.748Z,98591.84
2023-01-17T14:47:17.939Z,98585.50
2023-01-17T14:49:45.738Z,98591.56
2023-01-17T14:52:17.535Z,98603.56
2023-01-17T14:54:49.425Z,98605.59
2023-01-17T14:57:25.873Z,98607.53
2023-01-17T14:59:53.621Z,98603.94
2023-01-17T15:02:21.433Z,98608.75
2023-01-17T15:04:55.040Z,98602.84
2023-01-17T15:07:22.733Z,98611.66
2023-01-17T15:09:50.458Z,98608.06
2023-01-17T15:12:19.558Z,98618.53
2023-01-17T15:14:49.187Z,98616.06
2023-01-17T15:17:19.797Z,98614.41
2023-01-17T15:19:50.061Z,98625.69
2023-01-17T15:22:19.060Z,98613.44
2023-01-17T15:24:47.745Z,98620.44
2023-01-17T15:27:16.816Z,98617.41
2023-01-17T15:29:45.422Z,98618.38
2023-01-17T15:32:20.258Z,98609.44
2023-01-17T15:36:25.063Z,98620.41
2023-01-17T15:38:56.555Z,98610.09
2023-01-17T15:41:26.265Z,98615.47
2023-01-17T15:43:57.564Z,98618.47
2023-01-17T15:46:29.927Z,98619.59
2023-01-17T15:49:17.951Z,98621.75
2023-01-17T15:51:52.937Z,98628.22
2023-01-17T15:54:34.823Z,98626.97
2023-01-17T15:57:07.038Z,98626.28
2023-01-17T16:01:17.313Z,98631.75
2023-01-17T16:03:54.073Z,98640.81
2023-01-17T16:06:38.207Z,98639.75
2023-01-17T16:09:20.685Z,98635.81
2023-01-17T16:11:48.405Z,98640.09
2023-01-17T16:14:16.886Z,98635.66
2023-01-17T16:16:52.318Z,98643.97
2023-01-17T16:19:21.423Z,98651.84
2023-01-17T16:21:50.267Z,98646.97
2023-01-17T16:24:18.597Z,98654.38
2023-01-17T16:26:46.299Z,98650.47
2023-01-17T16:29:13.927Z,98650.00
2023-01-17T16:31:41.780Z,98645.25
2023-01-17T16:34:13.075Z,98648.94
2023-01-17T16:36:40.907Z,98647.91
2023-01-17T16:39:08.822Z,98642.94
2023-01-17T16:42:27.154Z,98648.25
2023-01-17T16:44:56.306Z,98656.47
2023-01-17T16:47:24.012Z,98650.66
2023-01-17T16:49:51.749Z,98660.50
2023-01-17T16:52:19.420Z,98657.41
2023-01-17T16:54:47.031Z,98655.16
2023-01-17T16:57:15.496Z,98661.78
2023-01-17T16:59:50.590Z,98663.41
2023-01-17T17:02:18.952Z,98660.06
2023-01-17T17:04:46.595Z,98668.75
2023-01-17T17:07:14.173Z,98663.91
2023-01-17T17:09:42.002Z,98667.13
2023-01-17T17:12:09.779Z,98679.41
2023-01-17T17:14:37.647Z,98678.59
2023-01-17T17:17:06.806Z,98681.03
2023-01-17T17:19:34.563Z,98677.25
2023-01-17T17:22:02.277Z,98683.88
2023-01-17T17:24:29.893Z,98691.19
2023-01-17T17:26:57.433Z,98688.09
2023-01-17T17:29:24.987Z,98697.06
2023-01-17T17:31:53.664Z,98695.63
2023-01-17T17:34:23.234Z,98695.88
2023-01-17T17:36:50.765Z,98701.28
2023-01-17T17:39:18.273Z,98701.50
2023-01-17T17:41:46.475Z,98700.88
2023-01-17T17:44:14.077Z,98705.38
2023-01-17T17:46:42.215Z,98714.25
2023-01-17T17:49:09.921Z,98719.63
2023-01-17T17:51:39.412Z,98723.19
2023-01-17T17:54:07.547Z,98728.38
2023-01-17T17:56:35.262Z,98723.31
2023-01-17T17:59:03.270Z,98735.47
2023-01-17T18:01:31.004Z,98734.75
2023-01-17T18:03:59.934Z,98735.78
2023-01-17T18:06:27.736Z,98744.53
2023-01-17T18:08:56.613Z,98742.03
2023-01-17T18:11:25.965Z,98747.38
2023-01-17T18:13:54.892Z,98756.94
2023-01-17T18:16:22.931Z,98760.47
2023-01-17T18:18:51.637Z,98751.94
2023-01-17T18:21:23.431Z,98772.72
2023-01-17T18:23:51.458Z,98766.81
2023-01-17T18:26:21.254Z,98773.91
2023-01-17T18:28:48.958Z,98772.25
2023-01-17T18:31:16.493Z,98771.53
2023-01-17T18:33:44.172Z,98776.72
2023-01-17T18:36:12.248Z,98781.91
2023-01-17T18:38:40.512Z,98778.56
2023-01-17T18:41:08.133Z,98794.16
2023-01-17T18:43:37.051Z,98786.47
2023-01-17T18:46:04.976Z,98784.81
2023-01-17T18:48:32.566Z,98786.59
2023-01-17T18:51:00.865Z,98793.56
2023-01-17T18:53:28.666Z,98797.09
2023-01-17T18:55:57.214Z,98792.94
2023-01-17T18:58:25.034Z,98792.94
2023-01-17T19:00:54.394Z,98800.00
2023-01-17T19:03:23.485Z,98803.56
2023-01-17T19:05:50.980Z,98807.09
2023-01-17T19:08:18.681Z,98802.84
2023-01-17T19:10:46.553Z,98805.56
2023-01-17T19:13:14.025Z,98799.50
2023-01-17T19:15:41.736Z,98804.91
2023-01-17T19:18:10.601Z,98810.22
2023-01-17T19:20:38.181Z,98802.53
2023-01-17T19:23:06.020Z,98818.13
2023-01-17T19:25:35.308Z,98806.09
2023-01-17T19:28:02.971Z,98803.56
2023-01-17T19:30:30.701Z,98804.63
2023-01-17T19:32:58.262Z,98806.50
2023-01-17T19:35:27.187Z,98814.41
2023-01-17T19:37:55.872Z,98815.44
2023-01-17T19:40:23.559Z,98814.59
2023-01-17T19:42:51.079Z,98819.91
2023-01-17T19:45:18.664Z,98820.72
2023-01-17T19:47:46.182Z,98817.31
2023-01-17T19:50:14.794Z,98822.50
2023-01-17T19:52:43.662Z,98819.19
2023-01-17T19:55:11.237Z,98820.13
2023-01-17T19:57:40.510Z,98819.38
2023-01-17T20:00:09.474Z,98822.91
2023-01-17T20:02:38.272Z,98817.81
2023-01-17T20:05:06.172Z,98828.31
2023-01-17T20:07:34.006Z,98827.56
2023-01-17T20:10:02.943Z,98830.19
2023-01-17T20:12:31.461Z,98824.16
2023-01-17T20:14:59.017Z,98830.19
2023-01-17T20:17:26.501Z,98823.31
2023-01-17T20:19:54.015Z,98825.09
2023-01-17T20:22:21.803Z,98830.41
2023-01-17T20:24:49.302Z,98828.75
2023-01-17T20:27:19.019Z,98819.41
2023-01-17T20:29:46.650Z,98822.06
2023-01-17T20:32:14.161Z,98824.78
2023-01-17T20:34:41.632Z,98831.75
2023-01-17T20:37:09.204Z,98825.00
2023-01-17T20:39:38.907Z,98825.13
2023-01-17T20:42:06.493Z,98820.00
2023-01-17T20:44:35.951Z,98822.72
2023-01-17T20:47:03.450Z,98824.59
2023-01-17T20:49:30.971Z,98825.63
2023-01-17T20:52:00.041Z,98831.84
2023-01-17T20:54:27.629Z,98832.06
2023-01-17T20:56:55.444Z,98818.38
2023-01-17T20:59:23.284Z,98822.63
2023-01-17T21:01:52.302Z,98823.56
2023-01-17T21:04:25.633Z,98821.78
2023-01-17T21:06:53.586Z,98824.28
2023-01-17T21:09:22.044Z,98826.88
2023-01-17T21:11:49.560Z,98832.06
2023-01-17T21:14:17.732Z,98833.72
2023-01-17T21:16:45.282Z,98834.53
2023-01-17T21:19:15.884Z,98841.38
2023-01-17T21:21:43.327Z,98843.16
2023-01-17T21:24:16.236Z,98844.81
2023-01-17T21:26:45.483Z,98848.34
2023-01-17T21:29:13.417Z,98844.09
2023-01-17T21:31:42.620Z,98847.63
2023-01-17T21:34:13.752Z,98848.56
2023-01-17T21:36:43.114Z,98844.31
2023-01-17T21:39:12.623Z,98846.97
2023-01-17T21:41:41.068Z,98844.38
2023-01-17T21:44:10.053Z,98847.09
2023-01-17T21:46:38.559Z,98851.56
2023-01-17T21:49:06.071Z,98849.91
2023-01-17T21:51:59.484Z,98849.91
2023-01-17T21:54:46.432Z,98853.44
2023-01-17T21:57:31.303Z,98857.78
2023-01-17T21:59:58.821Z,98862.16
2023-01-17T22:02:26.403Z,98853.63
2023-01-17T22:04:56.268Z,98867.53
2023-01-17T22:07:25.153Z,98871.88
2023-01-17T22:09:54.137Z,98871.06
2023-01-17T22:12:21.627Z,98875.53
2023-01-17T22:14:49.183Z,98880.81
2023-01-17T22:17:16.674Z,98879.06
2023-01-17T22:19:45.900Z,98882.66
2023-01-17T22:22:13.397Z,98881.00
2023-01-17T22:24:41.361Z,98884.63
2023-01-17T22:27:10.725Z,98887.34
2023-01-17T22:29:38.385Z,98889.19
2023-01-17T22:32:05.961Z,98893.53
2023-01-17T22:34:33.578Z,98907.44
2023-01-17T22:37:02.425Z,98903.19
2023-01-17T22:39:29.927Z,98906.72
2023-01-17T22:41:57.536Z,98907.66
2023-01-17T22:44:26.568Z,98908.66
2023-01-17T22:46:54.150Z,98897.56
2023-01-17T22:49:23.372Z,98904.50
2023-01-17T22:51:51.104Z,98913.22
2023-01-17T22:54:19.396Z,98915.94
2023-01-17T22:56:46.952Z,98905.66
2023-01-17T22:59:14.573Z,98907.50
2023-01-17T23:01:43.472Z,98919.63
2023-01-17T23:04:11.764Z,98905.84
2023-01-17T23:06:39.836Z,98907.72
2023-01-17T23:09:08.591Z,98904.28
2023-01-17T23:11:43.562Z,98909.56
2023-01-17T23:14:12.586Z,98913.94
2023-01-17T23:16:58.137Z,98909.66
2023-01-17T23:19:27.514Z,98916.59
2023-01-17T23:22:13.938Z,98916.59
2023-01-17T23:24:43.284Z,98916.69
2023-01-17T23:27:29.348Z,98912.34
2023-01-17T23:29:56.837Z,98913.28
2023-01-17T23:32:24.417Z,98918.47
2023-01-17T23:34:53.395Z,98921.06
2023-01-17T23:37:20.849Z,98913.28
2023-01-17T23:39:48.314Z,98913.28
2023-01-17T23:42:33.696Z,98910.78
2023-01-17T23:45:01.681Z,98913.47
2023-01-17T23:47:29.185Z,98909.22
2023-01-17T23:49:58.085Z,98904.13
2023-01-17T23:52:25.596Z,98914.50
2023-01-17T23:54:53.137Z,98914.59
2023-01-17T23:57:20.673Z,98910.34
2023-01-17T23:59:48.227Z,98908.56
